MMZ67 LPPT-SBFZ
Flight info
| Callsign | MMZ67 |
|---|---|
| Flight time | N/A |
| Altitude | 37000 |
| Route | BEVOP DCT BAROK UN873 SAMAR N873 GDV/N0478F390 N873 ODEGI/N0481F380 N873 IPERA UW43 NEMDO/N0480F400 UW43 SVT UW46 KEPAS UN741 MERUD/N0479F410 UN741 NANIK/N0482F400 UN741 JOBER DCT FLZ |
| Aircraft | B772/H-SDE2E3FGHIJ5LORVWXY/LB1D1 |
Departure
| Time | N/A |
|---|---|
| Airport | Lisbon Humberto Delgado Airport (LPPT) |
Arrival
| Time | 2026-05-08 12:53 |
|---|---|
| Airport | Pinto Martins International Airport (SBFZ) |
| Time | Latitude | Longitude | Altitude | Speed | Heading |
|---|---|---|---|---|---|
| 2026-05-08 11:12 | 6.82115 | -32.91393 | 39997 ft | 466 kts | 210° |
| 2026-05-08 11:13 | 6.79253 | -32.92935 | 39998 ft | 467 kts | 210° |
| 2026-05-08 11:13 | 6.73515 | -32.96028 | 39988 ft | 468 kts | 210° |
| 2026-05-08 11:14 | 6.67767 | -32.99125 | 39994 ft | 469 kts | 210° |
| 2026-05-08 11:14 | 6.61998 | -33.02233 | 39983 ft | 470 kts | 210° |
| 2026-05-08 11:15 | 6.56230 | -33.05340 | 39990 ft | 470 kts | 210° |
| 2026-05-08 11:15 | 6.50470 | -33.08441 | 39995 ft | 470 kts | 210° |
| 2026-05-08 11:16 | 6.44713 | -33.11541 | 39988 ft | 469 kts | 210° |
| 2026-05-08 11:16 | 6.38983 | -33.14625 | 39986 ft | 469 kts | 210° |
| 2026-05-08 11:17 | 6.33231 | -33.17719 | 39984 ft | 468 kts | 210° |
| 2026-05-08 11:17 | 6.27474 | -33.20799 | 39996 ft | 467 kts | 210° |
| 2026-05-08 11:18 | 6.21735 | -33.23865 | 39987 ft | 467 kts | 210° |
| 2026-05-08 11:18 | 6.15994 | -33.26932 | 39977 ft | 466 kts | 210° |
| 2026-05-08 11:19 | 6.10305 | -33.29973 | 39993 ft | 466 kts | 210° |
| 2026-05-08 11:19 | 6.04575 | -33.33035 | 39993 ft | 466 kts | 210° |
| 2026-05-08 11:20 | 5.98839 | -33.36100 | 39987 ft | 466 kts | 210° |
| 2026-05-08 11:20 | 5.93115 | -33.39158 | 39987 ft | 466 kts | 210° |
| 2026-05-08 11:21 | 5.87392 | -33.42214 | 39985 ft | 466 kts | 210° |
| 2026-05-08 11:21 | 5.82633 | -33.44755 | 39989 ft | 466 kts | 210° |
| 2026-05-08 11:22 | 5.75971 | -33.48311 | 39987 ft | 466 kts | 210° |
| 2026-05-08 11:22 | 5.70244 | -33.51368 | 39988 ft | 466 kts | 210° |
| 2026-05-08 11:23 | 5.65441 | -33.53930 | 39986 ft | 466 kts | 210° |
| 2026-05-08 11:23 | 5.59748 | -33.56968 | 39988 ft | 466 kts | 210° |
| 2026-05-08 11:24 | 5.54023 | -33.60021 | 39986 ft | 466 kts | 210° |
| 2026-05-08 11:24 | 5.48288 | -33.63079 | 39987 ft | 466 kts | 210° |
| 2026-05-08 11:25 | 5.42554 | -33.66135 | 39990 ft | 466 kts | 210° |
| 2026-05-08 11:25 | 5.36831 | -33.69186 | 39980 ft | 466 kts | 210° |
| 2026-05-08 11:26 | 5.31091 | -33.72245 | 39996 ft | 467 kts | 210° |
| 2026-05-08 11:26 | 5.25350 | -33.75303 | 39986 ft | 468 kts | 210° |
| 2026-05-08 11:27 | 5.19615 | -33.78358 | 39978 ft | 469 kts | 210° |
| 2026-05-08 11:27 | 5.13851 | -33.81428 | 39991 ft | 469 kts | 210° |
| 2026-05-08 11:28 | 5.08087 | -33.84496 | 39987 ft | 469 kts | 210° |
| 2026-05-08 11:28 | 5.02313 | -33.87570 | 39980 ft | 470 kts | 210° |
| 2026-05-08 11:29 | 4.96525 | -33.90650 | 39988 ft | 471 kts | 210° |
| 2026-05-08 11:29 | 4.90741 | -33.93728 | 39988 ft | 471 kts | 210° |
| 2026-05-08 11:30 | 4.84941 | -33.96814 | 39991 ft | 471 kts | 210° |
| 2026-05-08 11:30 | 4.79148 | -33.99895 | 39989 ft | 472 kts | 210° |
| 2026-05-08 11:31 | 4.73387 | -34.02959 | 39988 ft | 472 kts | 210° |
| 2026-05-08 11:31 | 4.67589 | -34.06042 | 39988 ft | 472 kts | 210° |
| 2026-05-08 11:32 | 4.61787 | -34.09127 | 39985 ft | 472 kts | 210° |
| 2026-05-08 11:32 | 4.55989 | -34.12209 | 39991 ft | 472 kts | 210° |
| 2026-05-08 11:33 | 4.50183 | -34.15295 | 39982 ft | 472 kts | 210° |
| 2026-05-08 11:33 | 4.44393 | -34.18384 | 39989 ft | 471 kts | 210° |
| 2026-05-08 11:34 | 4.38601 | -34.21486 | 39991 ft | 471 kts | 210° |
| 2026-05-08 11:34 | 4.32851 | -34.24565 | 39992 ft | 471 kts | 210° |
| 2026-05-08 11:35 | 4.27066 | -34.27662 | 39986 ft | 471 kts | 210° |
| 2026-05-08 11:35 | 4.21276 | -34.30759 | 39988 ft | 471 kts | 210° |
| 2026-05-08 11:36 | 4.15495 | -34.33850 | 39992 ft | 471 kts | 210° |
| 2026-05-08 11:36 | 4.09713 | -34.36942 | 39993 ft | 471 kts | 210° |
| 2026-05-08 11:37 | 4.03929 | -34.40035 | 39989 ft | 471 kts | 210° |
| 2026-05-08 11:37 | 3.98148 | -34.43125 | 39989 ft | 471 kts | 210° |
| 2026-05-08 11:38 | 3.92364 | -34.46216 | 39986 ft | 471 kts | 210° |
| 2026-05-08 11:38 | 3.86620 | -34.49286 | 39987 ft | 471 kts | 210° |
| 2026-05-08 11:39 | 3.80835 | -34.52377 | 39998 ft | 471 kts | 210° |
| 2026-05-08 11:39 | 3.75047 | -34.55469 | 39990 ft | 471 kts | 210° |
| 2026-05-08 11:40 | 3.69261 | -34.58560 | 39994 ft | 471 kts | 210° |
| 2026-05-08 11:40 | 3.63476 | -34.61650 | 39994 ft | 471 kts | 210° |
| 2026-05-08 11:41 | 3.57692 | -34.64740 | 39982 ft | 471 kts | 210° |
| 2026-05-08 11:41 | 3.51946 | -34.67808 | 39991 ft | 471 kts | 210° |
| 2026-05-08 11:42 | 3.46162 | -34.70895 | 39992 ft | 471 kts | 210° |
| 2026-05-08 11:42 | 3.40378 | -34.73984 | 39991 ft | 471 kts | 210° |
| 2026-05-08 11:43 | 3.34601 | -34.77069 | 39993 ft | 471 kts | 210° |
| 2026-05-08 11:43 | 3.28845 | -34.80143 | 39983 ft | 470 kts | 210° |
| 2026-05-08 11:44 | 3.23068 | -34.83227 | 39989 ft | 470 kts | 210° |
| 2026-05-08 11:44 | 3.17290 | -34.86312 | 39983 ft | 470 kts | 210° |
| 2026-05-08 11:45 | 3.11516 | -34.89394 | 39990 ft | 470 kts | 210° |
| 2026-05-08 11:45 | 3.05779 | -34.92456 | 39980 ft | 470 kts | 210° |
| 2026-05-08 11:46 | 3.00009 | -34.95535 | 39993 ft | 470 kts | 210° |
| 2026-05-08 11:46 | 2.94247 | -34.98610 | 39976 ft | 470 kts | 210° |
| 2026-05-08 11:47 | 2.88468 | -35.01693 | 39986 ft | 469 kts | 210° |
| 2026-05-08 11:47 | 2.82702 | -35.04769 | 39991 ft | 469 kts | 210° |
| 2026-05-08 11:48 | 2.76944 | -35.07841 | 39988 ft | 469 kts | 210° |
| 2026-05-08 11:48 | 2.71191 | -35.10910 | 39992 ft | 469 kts | 210° |
| 2026-05-08 11:49 | 2.65466 | -35.13956 | 39985 ft | 469 kts | 210° |
| 2026-05-08 11:49 | 2.59704 | -35.17012 | 39989 ft | 469 kts | 210° |
| 2026-05-08 11:50 | 2.53929 | -35.20076 | 39993 ft | 469 kts | 210° |
| 2026-05-08 11:50 | 2.48164 | -35.23135 | 39985 ft | 469 kts | 210° |
| 2026-05-08 11:51 | 2.42438 | -35.26174 | 39991 ft | 468 kts | 210° |
| 2026-05-08 11:51 | 2.36674 | -35.29234 | 39989 ft | 468 kts | 210° |
| 2026-05-08 11:52 | 2.30924 | -35.32286 | 39998 ft | 468 kts | 210° |
| 2026-05-08 11:52 | 2.25172 | -35.35338 | 39979 ft | 468 kts | 210° |
| 2026-05-08 11:53 | 2.19425 | -35.38387 | 39994 ft | 468 kts | 210° |
| 2026-05-08 11:53 | 2.13673 | -35.41439 | 39985 ft | 468 kts | 210° |
| 2026-05-08 11:54 | 2.07927 | -35.44488 | 39983 ft | 468 kts | 210° |
| 2026-05-08 11:54 | 2.02174 | -35.47539 | 39984 ft | 468 kts | 210° |
| 2026-05-08 11:55 | 1.96462 | -35.50569 | 39994 ft | 467 kts | 210° |
| 2026-05-08 11:55 | 1.90716 | -35.53617 | 39987 ft | 467 kts | 210° |
| 2026-05-08 11:56 | 1.84968 | -35.56665 | 39996 ft | 467 kts | 210° |
| 2026-05-08 11:56 | 1.79220 | -35.59714 | 39985 ft | 467 kts | 210° |
| 2026-05-08 11:57 | 1.73478 | -35.62758 | 39983 ft | 467 kts | 210° |
| 2026-05-08 11:57 | 1.67774 | -35.65783 | 39985 ft | 467 kts | 210° |
| 2026-05-08 11:58 | 1.62041 | -35.68822 | 39996 ft | 466 kts | 210° |
| 2026-05-08 11:58 | 1.56304 | -35.71864 | 39995 ft | 466 kts | 210° |
| 2026-05-08 11:59 | 1.47698 | -35.76426 | 40008 ft | 467 kts | 210° |
| 2026-05-08 11:59 | 1.41948 | -35.79474 | 39983 ft | 467 kts | 210° |
| 2026-05-08 12:00 | 1.36211 | -35.82515 | 39998 ft | 467 kts | 210° |
| 2026-05-08 12:00 | 1.30470 | -35.85558 | 40003 ft | 466 kts | 210° |
| 2026-05-08 12:01 | 1.24763 | -35.88583 | 39987 ft | 466 kts | 210° |
| 2026-05-08 12:01 | 1.19026 | -35.91623 | 39999 ft | 467 kts | 210° |
| 2026-05-08 12:02 | 1.13273 | -35.94672 | 39985 ft | 468 kts | 210° |
| 2026-05-08 12:02 | 1.07516 | -35.97722 | 39994 ft | 468 kts | 210° |
| 2026-05-08 12:03 | 1.01758 | -36.00774 | 39993 ft | 469 kts | 210° |
| 2026-05-08 12:03 | 0.95987 | -36.03832 | 39999 ft | 470 kts | 210° |
| 2026-05-08 12:04 | 0.90204 | -36.06896 | 39988 ft | 471 kts | 210° |
| 2026-05-08 12:04 | 0.84407 | -36.09967 | 39992 ft | 472 kts | 210° |
| 2026-05-08 12:05 | 0.78602 | -36.13043 | 39988 ft | 473 kts | 210° |
| 2026-05-08 12:05 | 0.72823 | -36.16105 | 39989 ft | 473 kts | 210° |
| 2026-05-08 12:06 | 0.66999 | -36.19190 | 39994 ft | 473 kts | 210° |
| 2026-05-08 12:06 | 0.61179 | -36.22273 | 39992 ft | 473 kts | 210° |
| 2026-05-08 12:07 | 0.55341 | -36.25365 | 39990 ft | 473 kts | 210° |
| 2026-05-08 12:07 | 0.49561 | -36.28428 | 39995 ft | 473 kts | 210° |
| 2026-05-08 12:08 | 0.43740 | -36.31511 | 39989 ft | 473 kts | 210° |
| 2026-05-08 12:08 | 0.37909 | -36.34600 | 39983 ft | 473 kts | 210° |
| 2026-05-08 12:09 | 0.32115 | -36.37670 | 39980 ft | 473 kts | 210° |
| 2026-05-08 12:09 | 0.27246 | -36.40249 | 39996 ft | 472 kts | 210° |
| 2026-05-08 12:10 | 0.21445 | -36.43321 | 39982 ft | 471 kts | 210° |
| 2026-05-08 12:10 | 0.15655 | -36.46388 | 39983 ft | 470 kts | 210° |
| 2026-05-08 12:11 | 0.09877 | -36.49449 | 39980 ft | 469 kts | 210° |
| 2026-05-08 12:11 | 0.04149 | -36.52483 | 39984 ft | 469 kts | 210° |
| 2026-05-08 12:12 | -0.01615 | -36.55537 | 39979 ft | 469 kts | 209° |
| 2026-05-08 12:12 | -0.07382 | -36.58592 | 39995 ft | 470 kts | 209° |
| 2026-05-08 12:13 | -0.13182 | -36.61664 | 39994 ft | 472 kts | 209° |
| 2026-05-08 12:13 | -0.19011 | -36.64752 | 39992 ft | 474 kts | 209° |
| 2026-05-08 12:14 | -0.24850 | -36.67844 | 39986 ft | 476 kts | 209° |
| 2026-05-08 12:14 | -0.30708 | -36.70947 | 39991 ft | 476 kts | 209° |
| 2026-05-08 12:15 | -0.36564 | -36.74050 | 39989 ft | 477 kts | 209° |
| 2026-05-08 12:15 | -0.42427 | -36.77155 | 39982 ft | 476 kts | 210° |
| 2026-05-08 12:16 | -0.48243 | -36.80236 | 39990 ft | 475 kts | 210° |
| 2026-05-08 12:16 | -0.54079 | -36.83328 | 39987 ft | 474 kts | 210° |
| 2026-05-08 12:17 | -0.59906 | -36.86415 | 39989 ft | 473 kts | 210° |
| 2026-05-08 12:17 | -0.65726 | -36.89499 | 39982 ft | 474 kts | 209° |
| 2026-05-08 12:18 | -0.71562 | -36.92590 | 39982 ft | 475 kts | 209° |
| 2026-05-08 12:18 | -0.77407 | -36.95687 | 39993 ft | 477 kts | 209° |
| 2026-05-08 12:19 | -0.83275 | -36.98797 | 39985 ft | 478 kts | 209° |
| 2026-05-08 12:19 | -0.89162 | -37.01917 | 39990 ft | 478 kts | 209° |
| 2026-05-08 12:20 | -0.95040 | -37.05049 | 39974 ft | 479 kts | 211° |
| 2026-05-08 12:20 | -1.00727 | -37.08427 | 39981 ft | 479 kts | 213° |
| 2026-05-08 12:21 | -1.06417 | -37.11911 | 39981 ft | 480 kts | 213° |
| 2026-05-08 12:21 | -1.12124 | -37.15395 | 39982 ft | 480 kts | 213° |
| 2026-05-08 12:22 | -1.17842 | -37.18864 | 39981 ft | 481 kts | 213° |
| 2026-05-08 12:22 | -1.23576 | -37.22334 | 39975 ft | 481 kts | 213° |
| 2026-05-08 12:23 | -1.29304 | -37.25800 | 39981 ft | 481 kts | 213° |
| 2026-05-08 12:23 | -1.35021 | -37.29260 | 39970 ft | 480 kts | 213° |
| 2026-05-08 12:24 | -1.40691 | -37.32692 | 39969 ft | 479 kts | 213° |
| 2026-05-08 12:24 | -1.46388 | -37.36142 | 39978 ft | 479 kts | 213° |
| 2026-05-08 12:25 | -1.52094 | -37.39596 | 39981 ft | 478 kts | 213° |
| 2026-05-08 12:25 | -1.57784 | -37.43042 | 39977 ft | 478 kts | 213° |
| 2026-05-08 12:26 | -1.63484 | -37.46494 | 39974 ft | 479 kts | 213° |
| 2026-05-08 12:26 | -1.69183 | -37.49946 | 39976 ft | 480 kts | 213° |
| 2026-05-08 12:27 | -1.74862 | -37.53385 | 39976 ft | 480 kts | 213° |
| 2026-05-08 12:27 | -1.80580 | -37.56848 | 39979 ft | 481 kts | 213° |
| 2026-05-08 12:28 | -1.86301 | -37.60313 | 39982 ft | 481 kts | 213° |
| 2026-05-08 12:28 | -1.92015 | -37.63774 | 39978 ft | 480 kts | 213° |
| 2026-05-08 12:29 | -1.97732 | -37.67237 | 39981 ft | 479 kts | 213° |
| 2026-05-08 12:29 | -2.03438 | -37.70694 | 39981 ft | 479 kts | 213° |
| 2026-05-08 12:30 | -2.09173 | -37.74171 | 39107 ft | 488 kts | 213° |
| 2026-05-08 12:30 | -2.12070 | -37.75928 | 38353 ft | 487 kts | 213° |
| 2026-05-08 12:30 | -2.14964 | -37.77681 | 37522 ft | 485 kts | 213° |
| 2026-05-08 12:31 | -2.17853 | -37.79431 | 36727 ft | 484 kts | 213° |
| 2026-05-08 12:31 | -2.20730 | -37.81174 | 35930 ft | 483 kts | 212° |
| 2026-05-08 12:31 | -2.23602 | -37.82915 | 35013 ft | 485 kts | 212° |
| 2026-05-08 12:31 | -2.26473 | -37.84655 | 34050 ft | 489 kts | 212° |
| 2026-05-08 12:32 | -2.29397 | -37.86427 | 32937 ft | 492 kts | 212° |
| 2026-05-08 12:32 | -2.32308 | -37.88192 | 32236 ft | 487 kts | 212° |
| 2026-05-08 12:32 | -2.35190 | -37.89938 | 31543 ft | 482 kts | 212° |
| 2026-05-08 12:32 | -2.38044 | -37.91668 | 30854 ft | 478 kts | 212° |
| 2026-05-08 12:33 | -2.40876 | -37.93384 | 30195 ft | 474 kts | 212° |
| 2026-05-08 12:33 | -2.43687 | -37.95088 | 29435 ft | 469 kts | 212° |
| 2026-05-08 12:33 | -2.46469 | -37.96775 | 28704 ft | 464 kts | 212° |
| 2026-05-08 12:33 | -2.49214 | -37.98439 | 28007 ft | 459 kts | 212° |
| 2026-05-08 12:34 | -2.51934 | -38.00089 | 27331 ft | 454 kts | 211° |
| 2026-05-08 12:34 | -2.54626 | -38.01722 | 26677 ft | 451 kts | 211° |
| 2026-05-08 12:34 | -2.57301 | -38.03344 | 26019 ft | 447 kts | 211° |
| 2026-05-08 12:34 | -2.59953 | -38.04953 | 25348 ft | 445 kts | 211° |
| 2026-05-08 12:35 | -2.62597 | -38.06557 | 24687 ft | 443 kts | 211° |
| 2026-05-08 12:35 | -2.65226 | -38.08151 | 24037 ft | 442 kts | 211° |
| 2026-05-08 12:35 | -2.67853 | -38.09745 | 23350 ft | 441 kts | 211° |
| 2026-05-08 12:35 | -2.70469 | -38.11332 | 22626 ft | 438 kts | 211° |
| 2026-05-08 12:36 | -2.73032 | -38.12888 | 21975 ft | 434 kts | 210° |
| 2026-05-08 12:36 | -2.75601 | -38.14447 | 21359 ft | 430 kts | 210° |
| 2026-05-08 12:36 | -2.78147 | -38.15992 | 20758 ft | 426 kts | 209° |
| 2026-05-08 12:36 | -2.80671 | -38.17523 | 20155 ft | 422 kts | 209° |
| 2026-05-08 12:37 | -2.83173 | -38.19041 | 19558 ft | 419 kts | 209° |
| 2026-05-08 12:37 | -2.85663 | -38.20552 | 18971 ft | 417 kts | 209° |
| 2026-05-08 12:37 | -2.88138 | -38.22053 | 18392 ft | 415 kts | 209° |
| 2026-05-08 12:37 | -2.90604 | -38.23549 | 17765 ft | 413 kts | 209° |
| 2026-05-08 12:38 | -2.93046 | -38.25031 | 17181 ft | 409 kts | 209° |
| 2026-05-08 12:38 | -2.95469 | -38.26502 | 16613 ft | 405 kts | 208° |
| 2026-05-08 12:38 | -2.97867 | -38.27957 | 16075 ft | 402 kts | 208° |
| 2026-05-08 12:38 | -3.00247 | -38.29402 | 15550 ft | 398 kts | 208° |
| 2026-05-08 12:39 | -3.02603 | -38.30832 | 15038 ft | 394 kts | 208° |
| 2026-05-08 12:39 | -3.04942 | -38.32252 | 14522 ft | 392 kts | 208° |
| 2026-05-08 12:39 | -3.07262 | -38.33661 | 13985 ft | 390 kts | 208° |
| 2026-05-08 12:39 | -3.09580 | -38.35067 | 13412 ft | 387 kts | 208° |
| 2026-05-08 12:40 | -3.11829 | -38.36434 | 12859 ft | 375 kts | 208° |
| 2026-05-08 12:40 | -3.14058 | -38.37788 | 12335 ft | 373 kts | 208° |
| 2026-05-08 12:40 | -3.16239 | -38.39111 | 11830 ft | 371 kts | 208° |
| 2026-05-08 12:40 | -3.18442 | -38.40448 | 11292 ft | 369 kts | 208° |
| 2026-05-08 12:41 | -3.20631 | -38.41777 | 10835 ft | 367 kts | 208° |
| 2026-05-08 12:41 | -3.22779 | -38.43082 | 10666 ft | 355 kts | 208° |
| 2026-05-08 12:41 | -3.24857 | -38.44346 | 10505 ft | 344 kts | 208° |
| 2026-05-08 12:41 | -3.26873 | -38.45572 | 10353 ft | 333 kts | 208° |
| 2026-05-08 12:42 | -3.28825 | -38.46758 | 10212 ft | 323 kts | 208° |
| 2026-05-08 12:42 | -3.30719 | -38.47909 | 10076 ft | 314 kts | 208° |
| 2026-05-08 12:42 | -3.32561 | -38.49027 | 9877 ft | 307 kts | 208° |
| 2026-05-08 12:42 | -3.34360 | -38.50120 | 9510 ft | 297 kts | 208° |
| 2026-05-08 12:43 | -3.36102 | -38.51179 | 9175 ft | 290 kts | 208° |
| 2026-05-08 12:43 | -3.37820 | -38.52221 | 8866 ft | 288 kts | 208° |
| 2026-05-08 12:43 | -3.39532 | -38.53260 | 8556 ft | 287 kts | 208° |
| 2026-05-08 12:43 | -3.41234 | -38.54293 | 8241 ft | 285 kts | 208° |
| 2026-05-08 12:44 | -3.42928 | -38.55321 | 7955 ft | 284 kts | 208° |
| 2026-05-08 12:44 | -3.44612 | -38.56344 | 7657 ft | 283 kts | 208° |
| 2026-05-08 12:44 | -3.46288 | -38.57362 | 7360 ft | 281 kts | 208° |
| 2026-05-08 12:44 | -3.47955 | -38.58375 | 7069 ft | 280 kts | 208° |
| 2026-05-08 12:45 | -3.49621 | -38.59379 | 6766 ft | 279 kts | 207° |
| 2026-05-08 12:45 | -3.51281 | -38.60374 | 6481 ft | 277 kts | 207° |
| 2026-05-08 12:45 | -3.52922 | -38.61366 | 6083 ft | 271 kts | 207° |
| 2026-05-08 12:45 | -3.54537 | -38.62333 | 5725 ft | 271 kts | 207° |
| 2026-05-08 12:46 | -3.56125 | -38.63306 | 5421 ft | 271 kts | 208° |
| 2026-05-08 12:46 | -3.57737 | -38.64291 | 5210 ft | 266 kts | 207° |
| 2026-05-08 12:46 | -3.59262 | -38.65224 | 4961 ft | 255 kts | 208° |
| 2026-05-08 12:46 | -3.60761 | -38.66147 | 4620 ft | 247 kts | 208° |
| 2026-05-08 12:47 | -3.62208 | -38.67031 | 4435 ft | 243 kts | 207° |
| 2026-05-08 12:47 | -3.63661 | -38.67906 | 4112 ft | 243 kts | 205° |
| 2026-05-08 12:47 | -3.65185 | -38.68482 | 3937 ft | 228 kts | 188° |
| 2026-05-08 12:47 | -3.66728 | -38.68800 | 3668 ft | 226 kts | 189° |
| 2026-05-08 12:48 | -3.68235 | -38.69180 | 3535 ft | 220 kts | 191° |
| 2026-05-08 12:48 | -3.69704 | -38.69560 | 3341 ft | 217 kts | 191° |
| 2026-05-08 12:48 | -3.71122 | -38.69849 | 3134 ft | 196 kts | 176° |
| 2026-05-08 12:48 | -3.72338 | -38.69436 | 2930 ft | 181 kts | 138° |
| 2026-05-08 12:49 | -3.73053 | -38.68448 | 2768 ft | 173 kts | 121° |
| 2026-05-08 12:49 | -3.73607 | -38.67394 | 2544 ft | 170 kts | 116° |
| 2026-05-08 12:49 | -3.74027 | -38.66328 | 2377 ft | 164 kts | 114° |
| 2026-05-08 12:49 | -3.74408 | -38.65279 | 2180 ft | 153 kts | 110° |
| 2026-05-08 12:50 | -3.74686 | -38.64255 | 1960 ft | 152 kts | 108° |
| 2026-05-08 12:50 | -3.74971 | -38.63251 | 1725 ft | 147 kts | 107° |
| 2026-05-08 12:50 | -3.75216 | -38.62277 | 1606 ft | 145 kts | 107° |
| 2026-05-08 12:50 | -3.75468 | -38.61335 | 1432 ft | 133 kts | 107° |
| 2026-05-08 12:51 | -3.75694 | -38.60448 | 1251 ft | 131 kts | 108° |
| 2026-05-08 12:51 | -3.76192 | -38.58667 | 856 ft | 130 kts | 108° |
| 2026-05-08 12:51 | -3.76422 | -38.57789 | 723 ft | 130 kts | 108° |
| 2026-05-08 12:52 | -3.76643 | -38.56924 | 564 ft | 129 kts | 109° |
| 2026-05-08 12:52 | -3.77123 | -38.55157 | 239 ft | 133 kts | 109° |
| 2026-05-08 12:52 | -3.77360 | -38.54275 | 98 ft | 130 kts | 107° |
| 2026-05-08 12:53 | -3.77565 | -38.53507 | 89 ft | 94 kts | 104° |
| 2026-05-08 12:53 | -3.77695 | -38.53024 | 90 ft | 50 kts | 105° |
| 2026-05-08 12:53 | -3.77762 | -38.52776 | 90 ft | 34 kts | 105° |
| 2026-05-08 12:53 | -3.77798 | -38.52642 | 91 ft | 9 kts | 108° |
| 2026-05-08 12:54 | -3.77829 | -38.52616 | 91 ft | 6 kts | 172° |
| 2026-05-08 12:54 | -3.77857 | -38.52642 | 88 ft | 6 kts | 240° |
| 2026-05-08 12:54 | -3.77878 | -38.52678 | 90 ft | 6 kts | 241° |
| 2026-05-08 12:54 | -3.77896 | -38.52716 | 91 ft | 6 kts | 246° |
| 2026-05-08 12:55 | -3.77907 | -38.52757 | 88 ft | 6 kts | 261° |
| 2026-05-08 12:55 | -3.77909 | -38.52801 | 89 ft | 6 kts | 274° |
| 2026-05-08 12:55 | -3.77900 | -38.52846 | 87 ft | 7 kts | 284° |
| 2026-05-08 12:55 | -3.77880 | -38.52926 | 90 ft | 17 kts | 284° |
| 2026-05-08 12:56 | -3.77849 | -38.53042 | 90 ft | 17 kts | 294° |
| 2026-05-08 12:56 | -3.77830 | -38.53113 | 89 ft | 10 kts | 277° |
| 2026-05-08 12:56 | -3.77804 | -38.53178 | 90 ft | 10 kts | 279° |
| 2026-05-08 12:56 | -3.77795 | -38.53248 | 89 ft | 10 kts | 277° |
| 2026-05-08 12:57 | -3.77751 | -38.53290 | 91 ft | 8 kts | 323° |
| 2026-05-08 12:57 | -3.77769 | -38.53362 | 90 ft | 17 kts | 245° |
| 2026-05-08 12:57 | -3.77757 | -38.53443 | 89 ft | 18 kts | 287° |
| 2026-05-08 12:57 | -3.77720 | -38.53559 | 88 ft | 18 kts | 288° |
| 2026-05-08 12:58 | -3.77690 | -38.53650 | 90 ft | 12 kts | 288° |
| 2026-05-08 12:58 | -3.77667 | -38.53727 | 90 ft | 12 kts | 285° |
| 2026-05-08 12:58 | -3.77686 | -38.53802 | 90 ft | 12 kts | 237° |
| 2026-05-08 12:58 | -3.77722 | -38.53874 | 87 ft | 12 kts | 258° |
| 2026-05-08 12:59 | -3.77714 | -38.53954 | 86 ft | 12 kts | 285° |
| 2026-05-08 12:59 | -3.77693 | -38.54030 | 90 ft | 8 kts | 285° |
| 2026-05-08 12:59 | -3.77689 | -38.54063 | 90 ft | 5 kts | 261° |
| 2026-05-08 12:59 | -3.77710 | -38.54085 | 91 ft | 5 kts | 213° |
| 2026-05-08 13:00 | -3.77740 | -38.54099 | 91 ft | 5 kts | 202° |
| 2026-05-08 13:00 | -3.77758 | -38.54106 | 91 ft | 0 kts | 203° |
| 2026-05-08 13:00 | -3.77760 | -38.54108 | 91 ft | 0 kts | 203° |